KF0EZB Weather Reports


Display with metric or nautical units.
time (UTC)temp
F
wind
direction
speed
MPH
gust
MPH
rain 1hr
in
rain 24hr
in
rain mn
in
humidity
%
barometer
mb
20240614185215 89 194 2.0 6.0 0.00 0.00 0.00 53 1019.7
20240614184713 89 153 2.0 5.0 0.00 0.00 0.00 53 1020.0
20240614184213 89 216 2.0 3.0 0.00 0.00 0.00 53 1020.2
20240614183710 89 136 5.0 8.0 0.00 0.00 0.00 51 1020.0
20240614183208 89 157 3.0 5.0 0.00 0.00 0.00 51 1020.2
20240614182704 89 163 0.0 5.0 0.00 0.00 0.00 50 1020.8
20240614182203 89 201 3.0 5.0 0.00 0.00 0.00 46 1020.4
20240614181702 89 152 0.0 3.0 0.00 0.00 0.00 47 1020.7
20240614181200 89 208 3.0 3.0 0.00 0.00 0.00 47 1020.9
20240614180655 88 179 1.0 3.0 0.00 0.00 0.00 51 1020.8
20240614180153 88 181 1.0 3.0 0.00 0.00 0.00 52 1020.9
20240614175651 87 137 0.0 3.0 0.00 0.00 0.00 52 1020.8
20240614175151 88 144 3.0 5.0 0.00 0.00 0.00 50 1021.2
20240614174648 89 155 0.0 2.0 0.00 0.00 0.00 49 1021.3
20240614174148 88 154 0.0 3.0 0.00 0.00 0.00 51 1021.1
20240614173647 87 204 2.0 5.0 0.00 0.00 0.00 54 1021.2
20240614173145 87 183 2.0 3.0 0.00 0.00 0.00 54 1021.3
20240614172644 86 202 1.0 5.0 0.00 0.00 0.00 54 1021.2
20240614172143 86 125 4.0 7.0 0.00 0.00 0.00 52 1021.1
20240614171640 86 165 1.0 2.0 0.00 0.00 0.00 56 1021.4
20240614171138 87 217 3.0 3.0 0.00 0.00 0.00 54 1021.4
20240614170638 86 179 1.0 3.0 0.00 0.00 0.00 56 1021.7
20240614170137 86 218 2.0 2.0 0.00 0.00 0.00 54 1021.6
20240614165636 85 204 1.0 3.0 0.00 0.00 0.00 57 1021.5
20240614165134 85 216 2.0 3.0 0.00 0.00 0.00 56 1021.6
20240614164634 85 237 2.0 5.0 0.00 0.00 0.00 55 1021.5
20240614164133 84 141 1.0 1.0 0.00 0.00 0.00 55 1021.3
20240614163630 84 194 1.0 3.0 0.00 0.00 0.00 54 1021.6
20240614163128 85 165 1.0 2.0 0.00 0.00 0.00 56 1021.8
20240614162625 84 152 0.0 1.0 0.00 0.00 0.00 59 1021.8
20240614162125 84 174 1.0 3.0 0.00 0.00 0.00 57 1021.7
20240614161623 83 120 2.0 2.0 0.00 0.00 0.00 55 1021.8
20240614161123 83 282 3.0 5.0 0.00 0.00 0.00 55 1021.6
20240614160621 84 146 1.0 2.0 0.00 0.00 0.00 56 1021.8
20240614160118 83 179 1.0 3.0 0.00 0.00 0.00 58 1022.3
20240614155617 83 175 0.0 3.0 0.00 0.00 0.00 59 1022.1
20240614155115 82 166 1.0 1.0 0.00 0.00 0.00 59 1021.9
20240614154614 82 173 1.0 2.0 0.00 0.00 0.00 59 1022.4
20240614154113 82 160 1.0 2.0 0.00 0.00 0.00 60 1022.5
20240614153613 82 177 1.0 3.0 0.00 0.00 0.00 59 1022.5
20240614153112 82 244 1.0 3.0 0.00 0.00 0.00 59 1022.3
20240614152611 82 171 1.0 3.0 0.00 0.00 0.00 59 1022.4
20240614152111 82 182 1.0 3.0 0.00 0.00 0.00 60 1022.4
20240614151609 82 167 1.0 1.0 0.00 0.00 0.00 61 1022.3
20240614151107 82 171 1.0 1.0 0.00 0.00 0.00 60 1022.3
20240614150604 82 151 0.0 2.0 0.00 0.00 0.00 59 1022.6
20240614150103 81 186 2.0 5.0 0.00 0.00 0.00 58 1022.4
20240614145602 82 149 2.0 3.0 0.00 0.00 0.00 58 1022.3
20240614145101 82 151 1.0 3.0 0.00 0.00 0.00 59 1022.4
20240614144559 81 110 1.0 3.0 0.00 0.00 0.00 57 1022.1
20240614144058 81 176 2.0 5.0 0.00 0.00 0.00 60 1022.1
20240614143554 80 142 3.0 3.0 0.00 0.00 0.00 59 1022.1
20240614143053 80 177 3.0 6.0 0.00 0.00 0.00 57 1022.0
20240614142551 80 226 1.0 2.0 0.00 0.00 0.00 59 1022.0
20240614142051 81 88 3.0 3.0 0.00 0.00 0.00 59 1021.9
20240614141548 80 264 3.0 6.0 0.00 0.00 0.00 61 1021.9
20240614141047 79 168 2.0 2.0 0.00 0.00 0.00 63 1021.8
20240614140547 78 125 3.0 6.0 0.00 0.00 0.00 63 1021.7
20240614140047 78 169 1.0 3.0 0.00 0.00 0.00 65 1021.6
20240614135545 78 144 2.0 5.0 0.00 0.00 0.00 64 1021.9
20240614135043 77 155 0.0 3.0 0.00 0.00 0.00 67 1021.7
20240614134542 76 142 0.0 3.0 0.00 0.00 0.00 68 1021.8
20240614134040 76 170 3.0 3.0 0.00 0.00 0.00 68 1021.9
20240614133539 75 152 0.0 3.0 0.00 0.00 0.00 69 1021.8
20240614133038 75 177 2.0 2.0 0.00 0.00 0.00 70 1022.1
20240614132537 75 158 1.0 3.0 0.00 0.00 0.00 71 1021.9
20240614132035 74 159 0.0 2.0 0.00 0.00 0.00 73 1022.3
20240614131533 73 165 1.0 1.0 0.00 0.00 0.00 74 1022.3
20240614131031 72 146 1.0 3.0 0.00 0.00 0.00 76 1022.3
20240614130529 71 223 2.0 2.0 0.00 0.00 0.00 77 1021.9
20240614130026 71 198 2.0 3.0 0.00 0.00 0.00 76 1022.0
20240614125518 70 139 1.0 2.0 0.00 0.00 0.00 79 1022.1
20240614125003 70 169 1.0 2.0 0.00 0.00 0.00 79 1022.1
20240614124502 69 166 1.0 1.0 0.00 0.00 0.00 80 1022.0
20240614124001 69 164 1.0 2.0 0.00 0.00 0.00 80 1022.0
20240614123500 69 167 0.0 1.0 0.00 0.00 0.00 83 1022.1
20240614123000 68 178 1.0 2.0 0.00 0.00 0.00 82 1021.9
20240614122459 68 163 0.0 3.0 0.00 0.00 0.00 84 1022.3
20240614121959 68 169 0.0 2.0 0.00 0.00 0.00 84 1022.3
20240614121458 67 168 1.0 2.0 0.00 0.00 0.00 84 1022.1
20240614120957 67 183 1.0 1.0 0.00 0.00 0.00 85 1022.5
20240614120458 66 159 1.0 2.0 0.00 0.00 0.00 86 1022.4
20240614115956 66 160 1.0 3.0 0.00 0.00 0.00 86 1022.3
20240614115455 65 155 0.0 1.0 0.00 0.00 0.00 88 1021.9
20240614114954 65 155 0.0 1.0 0.00 0.00 0.00 88 1021.9
20240614114452 65 162 0.0 3.0 0.00 0.00 0.00 88 1022.0
20240614113950 65 150 0.0 2.0 0.00 0.00 0.00 88 1021.8
20240614113449 65 165 0.0 1.0 0.00 0.00 0.00 88 1021.6
20240614112949 65 139 0.0 5.0 0.00 0.00 0.00 87 1021.9
20240614112448 66 125 4.0 5.0 0.00 0.00 0.00 87 1021.7
20240614111947 66 195 2.0 5.0 0.00 0.00 0.00 86 1022.1
20240614111445 66 159 1.0 3.0 0.00 0.00 0.00 84 1021.8
20240614110943 66 133 2.0 2.0 0.00 0.00 0.00 84 1020.3
20240614110442 66 131 0.0 1.0 0.00 0.00 0.00 84 1020.1
20240614105940 66 128 0.0 1.0 0.00 0.00 0.00 84 1019.8
20240614105437 66 127 1.0 1.0 0.00 0.00 0.00 84 1019.7
20240614104936 66 133 0.0 2.0 0.00 0.00 0.00 84 1019.7
20240614104434 66 78 1.0 2.0 0.00 0.00 0.00 83 1019.5
20240614103933 66 108 0.0 3.0 0.00 0.00 0.00 83 1019.3
20240614103431 66 102 1.0 2.0 0.00 0.00 0.00 83 1019.3
20240614102930 66 129 0.0 1.0 0.00 0.00 0.00 82 1019.5
20240614102429 67 109 0.0 2.0 0.00 0.00 0.00 82 1019.2
20240614101929 67 92 2.0 3.0 0.00 0.00 0.00 81 1019.1
20240614101427 67 119 0.0 3.0 0.00 0.00 0.00 80 1019.5
20240614100926 67 62 1.0 6.0 0.00 0.00 0.00 80 1019.4
20240614100426 67 126 0.0 5.0 0.00 0.00 0.00 80 1019.1
20240614095925 67 62 1.0 2.0 0.00 0.00 0.00 80 1019.2
20240614095424 67 68 1.0 2.0 0.00 0.00 0.00 80 1019.1
20240614094923 67 137 0.0 1.0 0.00 0.00 0.00 80 1019.4
20240614094422 68 126 0.0 2.0 0.00 0.00 0.00 79 1018.9
20240614093921 67 150 0.0 0.0 0.00 0.00 0.00 80 1018.9
20240614093418 68 146 0.0 1.0 0.00 0.00 0.00 79 1018.5
20240614092918 68 171 0.0 2.0 0.00 0.00 0.00 79 1018.7
20240614092417 67 220 1.0 2.0 0.00 0.00 0.00 79 1018.9
20240614091915 67 156 0.0 1.0 0.00 0.00 0.00 80 1018.5
20240614091413 68 220 0.0 3.0 0.00 0.00 0.00 79 1018.7
20240614090911 67 170 1.0 2.0 0.00 0.00 0.00 80 1018.6
20240614090409 68 186 0.0 3.0 0.00 0.00 0.00 80 1018.4
20240614085908 68 185 0.0 1.0 0.00 0.00 0.00 80 1018.6
20240614085405 68 274 1.0 3.0 0.00 0.00 0.00 80 1018.6
20240614084903 68 173 0.0 1.0 0.00 0.00 0.00 80 1018.5
20240614084402 68 290 2.0 6.0 0.00 0.00 0.00 80 1018.9
20240614083901 68 165 0.0 2.0 0.00 0.00 0.00 81 1018.5
20240614083359 68 171 0.0 1.0 0.00 0.00 0.00 81 1018.4
20240614082858 68 182 1.0 2.0 0.00 0.00 0.00 80 1018.4
20240614082357 68 294 1.0 8.0 0.00 0.00 0.00 80 1018.5
20240614081855 68 235 2.0 3.0 0.00 0.00 0.00 81 1018.2
20240614081354 68 228 2.0 3.0 0.00 0.00 0.00 81 1018.3
20240614080852 68 160 0.0 2.0 0.00 0.00 0.00 81 1018.2
20240614080351 68 156 0.0 1.0 0.00 0.00 0.00 81 1017.9
20240614075851 68 84 0.0 2.0 0.00 0.00 0.00 81 1017.9
20240614075348 68 187 2.0 3.0 0.00 0.00 0.00 80 1018.1
20240614074848 68 237 1.0 3.0 0.00 0.00 0.00 79 1018.0
20240614074346 68 175 1.0 1.0 0.00 0.00 0.00 80 1018.1
20240614073845 69 186 1.0 2.0 0.00 0.00 0.00 79 1018.1
20240614073344 69 187 1.0 2.0 0.00 0.00 0.00 78 1018.0
20240614072843 70 197 1.0 1.0 0.00 0.00 0.00 76 1018.2
20240614072342 70 183 1.0 2.0 0.00 0.00 0.00 75 1018.0
20240614071840 70 250 2.0 3.0 0.00 0.00 0.00 74 1018.0
20240614071340 70 177 1.0 1.0 0.00 0.00 0.00 76 1018.3
20240614070838 70 169 0.0 0.0 0.00 0.00 0.00 74 1018.2
20240614070339 70 176 0.0 2.0 0.00 0.00 0.00 73 1018.4
20240614065838 70 166 0.0 1.0 0.00 0.00 0.00 73 1018.4
20240614065337 71 132 0.0 2.0 0.00 0.00 0.00 72 1018.3
20240614064835 72 159 1.0 1.0 0.00 0.00 0.00 69 1018.3
20240614064335 72 226 2.0 2.0 0.00 0.00 0.00 70 1018.4
20240614063832 73 200 1.0 5.0 0.00 0.00 0.00 68 1018.4
20240614063332 72 271 5.0 6.0 0.00 0.00 0.00 68 1018.7
20240614062831 72 282 7.0 8.0 0.00 0.00 0.00 70 1018.5
20240614062329 71 192 2.0 5.0 0.00 0.00 0.00 72 1018.7
20240614061828 71 222 3.0 5.0 0.00 0.00 0.00 73 1018.6
20240614061327 71 241 3.0 5.0 0.00 0.00 0.00 73 1018.1
20240614060825 71 211 1.0 3.0 0.00 0.00 0.00 72 1018.3
20240614060323 71 198 2.0 3.0 0.00 0.00 0.00 72 1018.6
20240614055820 71 186 1.0 3.0 0.00 0.00 0.00 72 1018.4
20240614055319 72 199 2.0 2.0 0.00 0.00 0.00 70 1018.4
20240614054818 72 204 3.0 3.0 0.00 0.00 0.00 70 1018.5
20240614054316 72 193 1.0 3.0 0.00 0.00 0.00 70 1018.4
20240614053815 71 169 0.0 1.0 0.00 0.00 0.00 70 1018.4
20240614053313 70 174 1.0 2.0 0.00 0.00 0.00 72 1018.1
20240614052813 70 179 0.0 1.0 0.00 0.00 0.00 74 1018.4
20240614052312 71 197 1.0 2.0 0.00 0.00 0.00 74 1018.3
20240614051811 71 166 1.0 1.0 0.00 0.00 0.00 73 1018.1
20240614051309 71 164 0.0 1.0 0.00 0.00 0.00 72 1018.4
20240614050808 71 164 1.0 1.0 0.00 0.00 0.00 70 1018.2
20240614050307 72 164 0.0 1.0 0.00 0.00 0.00 69 1018.1
20240614045805 73 129 1.0 1.0 0.00 0.68 0.68 67 1018.3
20240614045308 73 135 3.0 5.0 0.00 0.68 0.68 66 1018.2
20240614044803 73 152 0.0 3.0 0.00 0.68 0.68 65 1018.3
20240614044302 74 182 3.0 6.0 0.00 0.68 0.68 65 1018.1
20240614043801 74 120 1.0 6.0 0.00 0.68 0.68 65 1017.9
20240614043300 74 153 2.0 5.0 0.00 0.68 0.68 65 1018.3
20240614042800 75 148 4.0 7.0 0.00 0.68 0.68 64 1018.2
20240614042258 75 143 4.0 9.0 0.00 0.68 0.68 63 1018.5
20240614041757 75 105 3.0 7.0 0.00 0.68 0.68 63 1018.2
20240614041256 75 183 5.0 7.0 0.00 0.68 0.68 63 1018.3
20240614040754 75 85 3.0 9.0 0.00 0.68 0.68 63 1018.3
20240614040253 76 128 2.0 10.0 0.00 0.68 0.68 61 1018.2
20240614035752 75 151 4.0 10.0 0.00 0.68 0.68 62 1018.3
20240614035250 75 113 7.0 10.0 0.00 0.68 0.68 62 1018.4
20240614034749 75 201 7.0 13.0 0.00 0.68 0.68 62 1018.4
20240614034247 75 119 7.0 10.0 0.00 0.68 0.68 64 1018.0
20240614033746 75 103 4.0 15.0 0.00 0.68 0.68 64 1017.9
20240614033245 76 200 5.0 13.0 0.00 0.68 0.68 61 1017.8
20240614032745 75 203 5.0 18.0 0.00 0.68 0.68 62 1017.9
20240614032244 74 83 4.0 13.0 0.00 0.68 0.68 67 1017.8
20240614031743 73 182 3.0 8.0 0.00 0.68 0.68 69 1017.3
20240614031242 73 174 9.0 15.0 0.00 0.68 0.68 71 1017.8
20240614030740 74 217 5.0 11.0 0.00 0.68 0.68 70 1017.8
20240614030239 74 172 7.0 16.0 0.00 0.68 0.68 69 1017.6
20240614025736 74 137 1.0 10.0 0.00 0.68 0.68 70 1017.9
20240614025236 73 163 2.0 6.0 0.00 0.68 0.68 70 1017.8
20240614024734 74 189 6.0 11.0 0.00 0.68 0.68 68 1017.4
20240614024233 74 193 6.0 8.0 0.00 0.68 0.68 68 1017.3
20240614023732 73 184 5.0 9.0 0.00 0.68 0.68 67 1016.9
20240614023230 72 226 3.0 10.0 0.00 0.68 0.68 72 1016.9
20240614022729 72 168 3.0 13.0 0.00 0.68 0.68 73 1016.7
20240614022228 73 134 5.0 11.0 0.00 0.68 0.68 72 1017.1
20240614021728 73 174 7.0 10.0 0.00 0.68 0.68 72 1016.8
20240614021227 73 167 3.0 15.0 0.00 0.68 0.68 69 1016.6
20240614020726 73 112 2.0 10.0 0.00 0.68 0.68 72 1016.3
20240614020225 72 241 7.0 14.0 0.00 0.68 0.68 74 1016.1
20240614015724 71 136 2.0 8.0 0.00 0.68 0.68 76 1016.2
20240614015223 70 73 5.0 7.0 0.00 0.68 0.68 79 1016.6
20240614014722 69 157 4.0 8.0 0.00 0.68 0.68 83 1016.4
20240614014220 68 186 2.0 3.0 0.00 0.68 0.68 87 1016.9
20240614013719 68 186 1.0 2.0 0.00 0.68 0.68 88 1017.4
20240614013218 68 183 1.0 6.0 0.07 0.68 0.68 88 1017.8
20240614012717 68 177 2.0 3.0 0.11 0.68 0.68 88 1017.4
20240614012215 68 149 3.0 7.0 0.04 0.67 0.67 88 1017.2
20240614011714 67 146 0.0 5.0 0.00 0.66 0.66 88 1017.3
20240614011211 68 203 2.0 3.0 0.00 0.66 0.66 88 1017.8
20240614010711 67 224 3.0 5.0 0.00 0.66 0.66 89 1017.2
20240614010210 66 226 1.0 5.0 0.00 0.66 0.66 91 1017.5
20240614005710 66 192 1.0 5.0 0.00 0.66 0.66 92 1017.6
20240614005208 66 225 3.0 5.0 0.00 0.66 0.66 92 1017.7
20240614004707 66 223 2.0 5.0 0.00 0.66 0.66 92 1017.8
20240614004205 66 242 3.0 5.0 0.00 0.66 0.66 91 1017.4
20240614003704 66 194 2.0 6.0 0.07 0.66 0.66 90 1018.1
20240614003203 66 217 1.0 3.0 0.18 0.66 0.66 91 1018.5
20240614002701 66 177 1.0 3.0 0.42 0.65 0.65 90 1017.7
20240614002200 66 246 3.0 7.0 0.78 0.63 0.63 88 1018.0
20240614001659 66 245 5.0 10.0 1.01 0.58 0.58 86 1018.0
20240614001158 65 266 5.0 11.0 1.86 0.50 0.50 87 1018.5
20240614000656 69 291 11.0 14.0 2.17 0.39 0.39 78 1018.4
20240614000153 71 317 12.0 20.0 0.78 0.13 0.13 84 1016.8
20240613235653 74 313 12.0 29.0 0.16 0.02 0.02 78 1017.4
20240613235152 78 321 12.0 18.0 0.04 0.00 0.00 66 1016.3
20240613234651 90 342 7.0 17.0 0.00 0.00 0.00 43 1016.0
20240613234150 93 121 2.0 3.0 0.00 0.00 0.00 36 1014.1
20240613233650 93 121 2.0 3.0 0.00 0.00 0.00 36 1014.1
20240613233149 94 342 1.0 5.0 0.00 0.00 0.00 33 1014.0
20240613232648 95 143 2.0 5.0 0.00 0.00 0.00 31 1013.3
20240613232146 93 171 0.0 1.0 0.00 0.00 0.00 52 1014.1
20240613231645 92 200 1.0 2.0 0.00 0.00 0.00 52 1013.8
20240613231143 93 154 0.0 1.0 0.00 0.00 0.00 52 1013.5
20240613230642 93 149 1.0 2.0 0.00 0.00 0.00 51 1013.4
20240613230140 93 151 1.0 6.0 0.00 0.00 0.00 51 1013.5
20240613225637 93 104 2.0 5.0 0.00 0.00 0.00 51 1013.5
20240613225136 93 150 2.0 5.0 0.00 0.00 0.00 51 1013.5
20240613224629 94 199 3.0 3.0 0.00 0.00 0.00 49 1012.9
20240613224119 95 170 1.0 5.0 0.00 0.00 0.00 48 1012.7
20240613223618 95 157 1.0 7.0 0.00 0.00 0.00 46 1012.8
20240613223116 96 243 1.0 2.0 0.00 0.00 0.00 46 1013.0
20240613222615 96 168 3.0 5.0 0.00 0.00 0.00 44 1013.0
20240613222113 97 178 2.0 3.0 0.00 0.00 0.00 43 1013.1
20240613221611 97 146 2.0 5.0 0.00 0.00 0.00 43 1012.9
20240613221110 98 134 1.0 6.0 0.00 0.00 0.00 44 1012.6
20240613220608 98 164 1.0 3.0 0.00 0.00 0.00 45 1012.7
20240613220107 98 156 1.0 3.0 0.00 0.00 0.00 43 1012.6
20240613215605 98 255 2.0 7.0 0.00 0.00 0.00 44 1012.6
20240613215103 97 216 3.0 5.0 0.00 0.00 0.00 42 1012.9
20240613214602 97 213 2.0 6.0 0.00 0.00 0.00 44 1013.0
20240613214100 98 192 2.0 3.0 0.00 0.00 0.00 44 1013.4
20240613213556 98 188 2.0 5.0 0.00 0.00 0.00 42 1013.3
20240613213055 98 247 3.0 5.0 0.00 0.00 0.00 41 1014.0
20240613212555 98 138 2.0 6.0 0.00 0.00 0.00 41 1013.8
20240613212054 99 131 3.0 6.0 0.00 0.00 0.00 41 1014.0
20240613211553 100 196 4.0 7.0 0.00 0.00 0.00 38 1014.1
20240613211052 101 192 3.0 5.0 0.00 0.00 0.00 41 1014.1
20240613210551 101 134 2.0 3.0 0.00 0.00 0.00 39 1014.0
20240613210049 101 189 3.0 8.0 0.00 0.00 0.00 40 1014.1
20240613205547 100 197 6.0 10.0 0.00 0.00 0.00 40 1014.1
20240613205046 100 267 7.0 10.0 0.00 0.00 0.00 42 1014.0
20240613204543 100 172 1.0 3.0 0.00 0.00 0.00 43 1014.3
20240613204043 100 270 5.0 7.0 0.00 0.00 0.00 41 1014.4
20240613203542 100 183 1.0 6.0 0.00 0.00 0.00 44 1014.3
20240613203041 99 146 2.0 7.0 0.00 0.00 0.00 42 1014.3
20240613202541 99 285 5.0 6.0 0.00 0.00 0.00 43 1014.6
20240613202039 99 211 3.0 8.0 0.00 0.00 0.00 43 1014.6
20240613201538 99 200 4.0 6.0 0.00 0.00 0.00 44 1014.6
20240613201037 99 113 1.0 6.0 0.00 0.00 0.00 45 1014.3
20240613200536 99 152 6.0 8.0 0.00 0.00 0.00 43 1014.3
20240613200035 99 192 4.0 7.0 0.00 0.00 0.00 44 1014.6
20240613195534 99 143 1.0 5.0 0.00 0.00 0.00 45 1014.4
20240613195033 99 167 3.0 7.0 0.00 0.00 0.00 44 1014.7
20240613194533 99 103 2.0 10.0 0.00 0.00 0.00 45 1014.7
20240613194034 98 168 2.0 5.0 0.00 0.00 0.00 46 1014.5
20240613193532 99 182 2.0 6.0 0.00 0.00 0.00 47 1014.8
20240613193030 98 121 1.0 5.0 0.00 0.00 0.00 47 1014.7
20240613192529 99 209 3.0 5.0 0.00 0.00 0.00 48 1014.5
20240613192028 98 166 3.0 7.0 0.00 0.00 0.00 46 1015.0
20240613191527 97 153 3.0 7.0 0.00 0.00 0.00 46 1014.9
20240613191025 98 242 3.0 5.0 0.00 0.00 0.00 46 1014.9
20240613190523 97 1 3.0 6.0 0.00 0.00 0.00 45 1014.7
20240613190023 97 339 1.0 7.0 0.00 0.00 0.00 46 1014.9